Time;durP1;ratioP1;P1;durP2;ratioP2;P2;SDS_P1;SDS_P2;PMS_P1;PMS_P2;Temp;Humidity;BMP_temperature;BMP_pressure;BME280_temperature;BME280_humidity;BME280_pressure;Samples;Min_cycle;Max_cycle;Signal;HPM_P1;HPM_P2
2021/11/25 00:00:07;;;;;;;31.30;19.20;;;;;;;5.19;87.50;100729.41;87029;1297;81006;-62
2021/11/25 00:02:37;;;;;;;28.60;18.60;;;;;;;5.18;87.56;100728.77;87008;1298;97809;-61
2021/11/25 00:04:47;;;;;;;24.30;17.90;;;;;;;5.19;87.78;100728.30;86902;1305;88694;-61
2021/11/25 00:06:56;;;;;;;27.10;17.90;;;;;;;5.19;87.55;100728.98;87023;1301;94603;-61
2021/11/25 00:09:06;;;;;;;25.40;18.10;;;;;;;5.20;87.56;100727.28;87018;1295;80717;-61
2021/11/25 00:11:16;;;;;;;26.60;18.60;;;;;;;5.19;87.69;100724.05;87004;1305;79998;-64
2021/11/25 00:13:26;;;;;;;26.10;18.60;;;;;;;5.17;87.53;100721.39;87004;1304;97131;-65
2021/11/25 00:15:37;;;;;;;26.70;17.90;;;;;;;5.18;87.59;100715.40;87012;1301;87608;-63
2021/11/25 00:17:46;;;;;;;24.50;17.50;;;;;;;5.18;87.50;100708.27;87002;1304;96117;-65
2021/11/25 00:19:59;;;;;;;21.70;16.90;;;;;;;5.17;87.54;100707.22;86993;1301;82494;-65
2021/11/25 00:22:09;;;;;;;26.00;17.80;;;;;;;5.15;87.53;100710.45;87009;1302;81814;-64
2021/11/25 00:24:18;;;;;;;24.50;18.00;;;;;;;5.15;87.53;100712.99;87025;1298;98834;-66
2021/11/25 00:26:29;;;;;;;25.40;17.60;;;;;;;5.14;87.53;100715.80;87017;1301;89433;-65
2021/11/25 00:28:39;;;;;;;23.70;17.00;;;;;;;5.18;87.66;100712.37;87022;1297;95120;-65
2021/11/25 00:30:49;;;;;;;24.40;16.50;;;;;;;5.18;87.50;100708.17;87010;1305;79292;-62
2021/11/25 00:32:58;;;;;;;24.10;17.30;;;;;;;5.21;87.38;100706.54;87018;1305;81438;-62
2021/11/25 00:35:13;;;;;;;23.80;17.30;;;;;;;5.21;87.51;100703.23;87009;1303;97975;-62
2021/11/25 00:37:22;;;;;;;25.60;17.50;;;;;;;5.20;87.55;100703.59;87059;1304;87943;-62
2021/11/25 00:39:32;;;;;;;28.00;18.60;;;;;;;5.21;87.62;100700.73;86986;1305;94523;-62
2021/11/25 00:41:43;;;;;;;26.40;18.10;;;;;;;5.22;87.61;100698.41;86988;1295;82724;-65
2021/11/25 00:43:53;;;;;;;28.70;17.80;;;;;;;5.21;87.41;100696.56;87016;1305;82572;-65
2021/11/25 00:46:02;;;;;;;26.90;18.70;;;;;;;5.18;87.61;100696.63;87018;1301;98072;-63
2021/11/25 00:48:12;;;;;;;28.60;18.50;;;;;;;5.14;87.37;100690.92;87022;1301;89103;-63
2021/11/25 00:50:23;;;;;;;28.80;18.90;;;;;;;5.19;87.49;100692.25;87018;1302;95545;-63
2021/11/25 00:52:32;;;;;;;24.70;17.10;;;;;;;5.17;87.32;100689.89;86911;1301;80368;-61
2021/11/25 00:54:42;;;;;;;26.90;18.60;;;;;;;5.15;87.38;100693.34;86994;1304;82148;-62
2021/11/25 00:56:55;;;;;;;28.90;20.50;;;;;;;5.08;87.64;100686.52;87008;1301;98549;-65
2021/11/25 00:59:04;;;;;;;28.40;19.80;;;;;;;5.10;87.57;100683.45;87006;1301;89343;-63
2021/11/25 01:01:13;;;;;;;25.70;19.40;;;;;;;5.12;87.61;100682.16;86996;1305;95731;-67
2021/11/25 01:03:23;;;;;;;26.90;19.50;;;;;;;5.12;87.71;100681.63;87008;1301;81818;-64
2021/11/25 01:05:33;;;;;;;30.50;20.90;;;;;;;5.14;87.56;100684.33;86911;1301;82005;-64
2021/11/25 01:07:43;;;;;;;30.30;20.20;;;;;;;5.15;87.52;100686.01;87018;1301;98956;-61
2021/11/25 01:09:52;;;;;;;28.00;19.60;;;;;;;5.16;87.53;100683.39;87040;1295;86643;-61
2021/11/25 01:12:06;;;;;;;29.20;20.60;;;;;;;5.16;87.71;100681.52;86976;1304;95711;-64
2021/11/25 01:14:18;;;;;;;27.20;19.20;;;;;;;5.16;87.64;100677.87;87007;1304;80730;-67
2021/11/25 01:16:28;;;;;;;29.20;20.50;;;;;;;5.17;87.56;100674.23;87037;1304;82559;-65
2021/11/25 01:18:37;;;;;;;26.40;19.80;;;;;;;5.14;87.53;100669.70;87020;1298;97896;-61
2021/11/25 01:20:50;;;;;;;29.00;19.60;;;;;;;5.15;87.58;100663.92;87041;1301;86461;-62
2021/11/25 01:23:02;;;;;;;29.40;19.80;;;;;;;5.11;87.69;100658.70;86931;1303;93918;-63
2021/11/25 01:25:12;;;;;;;30.70;20.70;;;;;;;5.13;87.43;100658.20;87008;1301;80959;-61
2021/11/25 01:27:22;;;;;;;29.20;20.30;;;;;;;5.16;87.56;100657.52;87020;1304;83409;-62
2021/11/25 01:29:31;;;;;;;33.20;21.00;;;;;;;5.15;87.47;100659.80;87043;1305;97381;-62
2021/11/25 01:31:42;;;;;;;28.90;20.80;;;;;;;5.12;87.57;100660.42;87026;1305;88508;-61
2021/11/25 01:33:53;;;;;;;29.10;20.70;;;;;;;5.10;87.57;100656.33;87003;1301;94289;-61
2021/11/25 01:36:04;;;;;;;31.90;20.80;;;;;;;5.11;87.49;100652.13;87039;1301;81122;-61
2021/11/25 01:38:14;;;;;;;29.10;19.90;;;;;;;5.13;87.62;100656.80;87038;1299;81088;-61
2021/11/25 01:40:24;;;;;;;30.80;21.40;;;;;;;5.12;87.65;100650.06;87000;1305;98905;-66
2021/11/25 01:42:34;;;;;;;30.60;21.20;;;;;;;5.15;87.68;100648.34;87026;1299;86743;-65
2021/11/25 01:44:43;;;;;;;31.00;21.10;;;;;;;5.18;87.49;100646.59;87055;1303;93744;-65
2021/11/25 01:46:53;;;;;;;31.50;21.50;;;;;;;5.19;87.65;100646.39;86991;1296;78820;-63
2021/11/25 01:49:06;;;;;;;28.30;20.30;;;;;;;5.17;87.70;100645.98;87044;1299;81971;-61
2021/11/25 01:51:16;;;;;;;31.70;21.30;;;;;;;5.18;87.58;100644.52;87005;1305;98683;-63
2021/11/25 01:53:26;;;;;;;33.80;22.70;;;;;;;5.17;87.82;100644.60;86930;1298;86380;-63
2021/11/25 01:55:36;;;;;;;31.90;21.90;;;;;;;5.17;87.53;100646.04;87018;1305;94535;-64
2021/11/25 01:57:47;;;;;;;31.30;20.40;;;;;;;5.15;87.73;100639.20;87005;1300;81722;-65
2021/11/25 01:59:57;;;;;;;28.60;20.20;;;;;;;5.15;87.55;100633.88;87037;1301;81634;-65
2021/11/25 02:02:08;;;;;;;33.20;21.40;;;;;;;5.07;87.60;100631.14;87027;1300;97194;-63
2021/11/25 02:04:17;;;;;;;30.30;21.50;;;;;;;5.02;87.63;100623.40;87039;1304;87168;-63
2021/11/25 02:06:27;;;;;;;30.50;21.90;;;;;;;5.06;87.66;100618.58;87012;1298;94708;-66
2021/11/25 02:08:36;;;;;;;35.00;22.20;;;;;;;5.06;87.59;100616.55;87009;1299;80988;-64
2021/11/25 02:10:50;;;;;;;29.20;20.70;;;;;;;5.08;87.65;100612.11;87026;1299;80126;-62
2021/11/25 02:13:00;;;;;;;31.60;21.40;;;;;;;5.10;87.52;100609.57;86908;1300;98514;-63
2021/11/25 02:15:13;;;;;;;32.10;21.40;;;;;;;5.10;87.60;100607.47;87040;1304;87683;-62
2021/11/25 02:17:23;;;;;;;31.10;21.60;;;;;;;5.05;87.73;100605.02;86992;1295;94351;-61
2021/11/25 02:19:33;;;;;;;33.40;21.10;;;;;;;5.05;87.60;100605.63;87036;1299;81824;-63
2021/11/25 02:21:42;;;;;;;29.90;20.10;;;;;;;5.06;87.82;100602.13;86917;1305;82254;-65
2021/11/25 02:23:55;;;;;;;30.70;20.60;;;;;;;5.05;87.75;100599.15;87047;1299;97782;-64
2021/11/25 02:26:05;;;;;;;30.20;20.60;;;;;;;5.04;87.77;100599.14;86920;1296;87857;-61
2021/11/25 02:28:18;;;;;;;28.50;20.50;;;;;;;5.01;87.74;100594.60;87021;1302;93575;-62
2021/11/25 02:30:27;;;;;;;28.80;19.40;;;;;;;4.99;87.77;100595.12;86921;1301;80749;-62
2021/11/25 02:32:39;;;;;;;29.40;20.20;;;;;;;4.97;87.80;100599.06;87025;1299;83369;-64
2021/11/25 02:34:48;;;;;;;30.50;21.10;;;;;;;4.98;87.70;100597.69;87035;1302;98618;-64
2021/11/25 02:36:58;;;;;;;30.40;20.50;;;;;;;4.99;87.65;100593.34;87034;1298;88861;-64
2021/11/25 02:39:11;;;;;;;29.60;20.40;;;;;;;4.98;87.72;100591.09;86923;1297;95037;-63
2021/11/25 02:41:20;;;;;;;32.60;21.40;;;;;;;4.95;87.82;100586.57;87015;1298;81572;-63
2021/11/25 02:43:35;;;;;;;29.40;19.40;;;;;;;4.98;87.72;100580.10;87031;1296;80692;-66
2021/11/25 02:45:54;;;;;;;30.70;20.70;;;;;;;4.98;87.69;100579.38;86991;1299;97500;-64
2021/11/25 02:48:03;;;;;;;30.70;21.00;;;;;;;4.95;87.68;100577.15;86889;1302;88408;-63
2021/11/25 02:50:14;;;;;;;28.60;20.00;;;;;;;4.93;87.47;100571.61;87009;1304;95870;-64
2021/11/25 02:52:25;;;;;;;30.60;20.60;;;;;;;4.93;87.74;100566.45;87034;1298;79666;-62
2021/11/25 02:54:35;;;;;;;29.40;20.90;;;;;;;4.93;87.74;100568.09;87015;1299;83334;-61
2021/11/25 02:56:45;;;;;;;30.00;20.80;;;;;;;4.94;87.68;100567.41;87020;1305;99436;-64
2021/11/25 02:58:56;;;;;;;31.10;21.20;;;;;;;4.94;87.76;100567.24;87004;1293;86854;-64
2021/11/25 03:01:11;;;;;;;27.10;19.50;;;;;;;4.97;87.84;100566.03;87028;1299;94887;-64
2021/11/25 03:03:21;;;;;;;29.50;20.90;;;;;;;5.00;87.62;100567.95;87028;1299;80368;-64
2021/11/25 03:05:31;;;;;;;28.80;19.20;;;;;;;5.00;87.64;100564.14;87033;1299;82098;-64
2021/11/25 03:07:41;;;;;;;29.00;20.20;;;;;;;5.00;87.67;100561.14;87017;1299;99277;-64
2021/11/25 03:09:51;;;;;;;26.50;19.30;;;;;;;4.99;87.59;100556.36;86994;1299;88981;-63
2021/11/25 03:12:05;;;;;;;29.90;19.50;;;;;;;4.99;87.71;100550.48;87032;1299;95244;-61
2021/11/25 03:14:15;;;;;;;29.50;19.30;;;;;;;5.01;87.72;100547.25;86879;1302;84146;-61
2021/11/25 03:16:27;;;;;;;28.20;19.00;;;;;;;4.96;87.67;100546.52;87015;1296;80769;-63
2021/11/25 03:18:36;;;;;;;29.20;19.40;;;;;;;4.96;87.57;100543.30;87023;1299;99007;-66
2021/11/25 03:20:49;;;;;;;26.80;18.90;;;;;;;4.97;87.63;100543.27;87031;1299;87595;-61
2021/11/25 03:22:59;;;;;;;28.70;18.80;;;;;;;4.97;87.79;100541.30;87031;1301;93494;-62
2021/11/25 03:25:11;;;;;;;28.20;17.90;;;;;;;5.01;87.56;100539.27;87004;1299;81042;-62
2021/11/25 03:27:21;;;;;;;26.70;18.60;;;;;;;5.03;87.55;100541.17;87044;1304;80962;-64
2021/11/25 03:29:30;;;;;;;28.40;19.30;;;;;;;5.03;87.55;100539.54;87019;1295;97925;-63
2021/11/25 03:31:40;;;;;;;25.40;18.00;;;;;;;5.02;87.57;100535.44;87053;1298;88065;-63
2021/11/25 03:33:50;;;;;;;25.50;18.50;;;;;;;5.00;87.44;100534.36;87032;1299;93994;-63
2021/11/25 03:36:03;;;;;;;25.00;17.60;;;;;;;5.04;87.49;100530.55;87027;1305;80252;-67
2021/11/25 03:38:12;;;;;;;27.30;18.50;;;;;;;5.04;87.39;100523.76;87017;1287;81649;-64
2021/11/25 03:40:22;;;;;;;30.50;19.80;;;;;;;5.03;87.44;100522.95;87010;1304;97723;-64
2021/11/25 03:42:31;;;;;;;28.30;19.40;;;;;;;5.02;87.28;100519.86;86997;1300;88154;-65
2021/11/25 03:44:45;;;;;;;25.70;19.00;;;;;;;5.00;87.45;100516.66;87018;1301;95328;-64
2021/11/25 03:46:55;;;;;;;27.40;18.10;;;;;;;5.03;87.25;100514.10;87033;1299;80274;-65
2021/11/25 03:49:05;;;;;;;26.00;17.50;;;;;;;5.00;87.23;100510.59;87019;1299;82361;-65
2021/11/25 03:51:15;;;;;;;25.70;18.00;;;;;;;5.00;87.51;100508.35;86924;1301;97640;-61
2021/11/25 03:53:25;;;;;;;28.80;19.30;;;;;;;5.02;87.24;100505.27;87050;1303;90899;-62
2021/11/25 03:55:38;;;;;;;27.30;18.90;;;;;;;5.00;87.31;100500.83;87024;1298;94696;-62
2021/11/25 03:57:48;;;;;;;30.30;17.60;;;;;;;5.00;87.45;100499.72;87019;1299;81422;-64
2021/11/25 04:00:00;;;;;;;27.70;18.60;;;;;;;5.03;87.31;100495.83;87035;1297;79948;-63
2021/11/25 04:02:10;;;;;;;26.20;18.20;;;;;;;5.01;87.26;100492.33;87034;1298;99727;-62
2021/11/25 04:04:19;;;;;;;25.50;18.00;;;;;;;4.97;87.24;100490.25;87033;1301;89553;-63
2021/11/25 04:06:32;;;;;;;26.40;17.20;;;;;;;4.95;87.09;100489.89;87074;1297;92289;-64
2021/11/25 04:08:42;;;;;;;26.20;18.30;;;;;;;4.91;87.12;100488.15;87013;1302;81426;-60
2021/11/25 04:10:52;;;;;;;29.80;19.10;;;;;;;4.91;87.16;100486.91;86922;1301;82404;-63
2021/11/25 04:13:01;;;;;;;27.80;19.00;;;;;;;4.89;87.11;100485.14;87035;1298;97881;-62
2021/11/25 04:15:13;;;;;;;30.00;19.60;;;;;;;4.92;87.10;100483.43;87009;1299;87809;-62
2021/11/25 04:17:23;;;;;;;28.70;19.30;;;;;;;4.90;87.10;100479.84;87041;1300;95806;-64
2021/11/25 04:19:33;;;;;;;31.00;20.40;;;;;;;4.90;87.12;100480.07;87016;1299;81575;-66
2021/11/25 04:21:42;;;;;;;31.10;21.00;;;;;;;4.93;86.95;100476.55;87049;1299;81747;-62
2021/11/25 04:23:52;;;;;;;28.70;20.40;;;;;;;4.93;86.85;100470.63;87031;1298;97283;-61
2021/11/25 04:26:02;;;;;;;32.20;21.60;;;;;;;4.92;86.93;100467.14;86908;1301;89646;-61
2021/11/25 04:28:12;;;;;;;29.70;20.50;;;;;;;4.93;86.82;100460.12;87008;1299;93265;-61
2021/11/25 04:30:31;;;;;;;31.40;22.60;;;;;;;4.93;86.76;100459.09;86972;1292;80209;-62
2021/11/25 04:37:39;;;;;;;33.80;23.70;;;;;;;4.90;86.96;100449.55;87068;1299;86654;-61
2021/11/25 04:39:49;;;;;;;34.50;22.70;;;;;;;4.91;86.75;100444.11;87068;1299;95182;-61
2021/11/25 04:41:59;;;;;;;32.60;23.00;;;;;;;4.89;86.72;100437.52;87101;1299;79217;-65
2021/11/25 04:44:08;;;;;;;33.10;22.80;;;;;;;4.86;86.77;100439.44;87089;1298;81626;-65
2021/11/25 04:46:18;;;;;;;33.10;21.70;;;;;;;4.85;86.53;100436.85;87032;1299;100340;-65
2021/11/25 04:48:29;;;;;;;32.90;21.70;;;;;;;4.83;86.59;100439.31;87066;1294;86384;-61
2021/11/25 04:50:40;;;;;;;33.90;23.10;;;;;;;4.81;86.50;100436.85;87025;1305;95807;-65
2021/11/25 04:52:50;;;;;;;36.30;22.90;;;;;;;4.74;86.62;100434.73;87067;1299;78958;-68
2021/11/25 04:55:00;;;;;;;35.40;23.20;;;;;;;4.73;86.62;100435.30;87043;1296;81520;-67
2021/11/25 04:57:10;;;;;;;34.80;22.90;;;;;;;4.73;86.69;100433.02;87006;1299;99625;-61
2021/11/25 04:59:19;;;;;;;32.10;22.10;;;;;;;4.73;86.41;100433.86;87016;1299;89106;-61
2021/11/25 05:01:29;;;;;;;35.90;23.50;;;;;;;4.74;86.41;100429.36;87008;1299;94161;-66
2021/11/25 05:03:42;;;;;;;36.00;23.60;;;;;;;4.73;86.43;100427.10;87001;1299;81373;-66
2021/11/25 05:05:54;;;;;;;36.90;22.60;;;;;;;4.72;86.39;100421.73;87051;1301;80679;-65
2021/11/25 05:08:04;;;;;;;34.70;23.00;;;;;;;4.68;86.61;100420.69;87014;1299;100291;-65
2021/11/25 05:10:14;;;;;;;34.20;23.40;;;;;;;4.67;86.47;100421.85;87034;1299;89336;-65
2021/11/25 05:12:25;;;;;;;35.30;23.80;;;;;;;4.63;86.29;100417.94;87028;1299;93346;-64
2021/11/25 05:14:34;;;;;;;34.90;22.70;;;;;;;4.57;86.33;100416.40;86864;1302;81451;-63
2021/11/25 05:16:44;;;;;;;33.40;22.70;;;;;;;4.54;86.17;100411.61;87097;1300;81763;-63
2021/11/25 05:18:54;;;;;;;35.60;23.20;;;;;;;4.50;86.22;100415.31;87059;1299;98906;-64
2021/11/25 05:21:07;;;;;;;34.60;22.80;;;;;;;4.49;86.21;100411.71;87070;1299;88731;-64
2021/11/25 05:23:16;;;;;;;35.10;23.50;;;;;;;4.49;86.08;100410.05;87061;1297;94026;-64
2021/11/25 05:25:29;;;;;;;33.80;22.50;;;;;;;4.49;86.10;100404.73;87047;1295;81539;-65
2021/11/25 05:27:39;;;;;;;32.30;22.50;;;;;;;4.44;86.07;100401.84;87073;1298;82600;-63
2021/11/25 05:29:52;;;;;;;37.60;24.40;;;;;;;4.42;85.72;100401.31;87073;1303;98720;-62
2021/11/25 05:32:02;;;;;;;28.30;19.30;;;;;;;4.36;85.65;100398.20;87089;1299;89257;-65
2021/11/25 05:34:11;;;;;;;34.10;23.20;;;;;;;4.25;85.78;100396.13;87091;1297;95252;-65
2021/11/25 05:36:22;;;;;;;36.80;24.20;;;;;;;4.16;85.73;100390.54;86886;1303;77358;-62
2021/11/25 05:38:32;;;;;;;37.10;24.10;;;;;;;4.07;85.71;100384.27;87075;1292;79712;-63
2021/11/25 05:40:43;;;;;;;32.10;22.40;;;;;;;3.98;85.91;100386.55;87000;1299;100432;-61
2021/11/25 05:42:53;;;;;;;38.20;22.50;;;;;;;3.92;85.76;100386.27;87035;1295;89170;-62
2021/11/25 05:45:04;;;;;;;36.80;23.40;;;;;;;3.82;85.66;100384.05;87026;1295;94561;-62
2021/11/25 05:47:14;;;;;;;32.90;22.60;;;;;;;3.75;85.67;100381.35;87002;1304;80293;-64
2021/11/25 05:49:23;;;;;;;35.30;22.40;;;;;;;3.67;85.55;100384.58;87067;1297;82383;-65
2021/11/25 05:51:34;;;;;;;33.10;22.20;;;;;;;3.61;85.68;100387.86;87082;1299;98907;-63
2021/11/25 05:53:43;;;;;;;35.00;22.40;;;;;;;3.54;85.82;100390.61;87085;1298;87847;-63
2021/11/25 05:55:53;;;;;;;29.80;21.30;;;;;;;3.48;85.71;100389.65;86989;1301;94472;-64
2021/11/25 05:58:03;;;;;;;30.80;21.30;;;;;;;3.42;85.57;100389.48;86989;1298;81225;-62
2021/11/25 06:00:16;;;;;;;31.20;21.10;;;;;;;3.37;85.56;100390.67;87007;1299;83548;-62
2021/11/25 06:02:25;;;;;;;35.20;21.60;;;;;;;3.29;85.64;100392.30;86980;1299;99719;-63
2021/11/25 06:04:36;;;;;;;34.30;22.50;;;;;;;3.20;85.59;100395.63;87006;1299;86679;-62
2021/11/25 06:06:46;;;;;;;35.10;23.00;;;;;;;3.11;85.56;100398.33;87030;1299;94468;-63
2021/11/25 06:08:58;;;;;;;37.40;24.90;;;;;;;3.05;85.79;100401.88;87064;1297;79781;-64
2021/11/25 06:11:08;;;;;;;33.50;23.40;;;;;;;3.00;85.56;100398.61;87087;1292;79652;-64
2021/11/25 06:13:17;;;;;;;33.70;23.10;;;;;;;2.88;85.75;100394.73;87018;1299;100685;-64
2021/11/25 06:15:28;;;;;;;32.50;22.10;;;;;;;2.78;85.69;100391.37;87005;1296;89169;-64
2021/11/25 06:17:37;;;;;;;31.50;22.60;;;;;;;2.71;85.90;100383.84;87026;1295;92676;-63
2021/11/25 06:19:47;;;;;;;35.00;22.00;;;;;;;2.65;85.72;100383.89;87062;1302;78700;-64
2021/11/25 06:21:57;;;;;;;31.50;19.80;;;;;;;2.57;85.86;100381.61;87022;1305;82664;-63
2021/11/25 06:24:08;;;;;;;31.90;21.00;;;;;;;2.50;86.04;100381.33;87021;1299;97731;-62
2021/11/25 06:26:17;;;;;;;33.50;20.80;;;;;;;2.52;85.97;100381.30;87028;1299;88930;-63
2021/11/25 06:28:28;;;;;;;33.40;19.70;;;;;;;2.53;86.21;100375.60;87020;1298;95117;-62
2021/11/25 06:30:38;;;;;;;30.70;21.00;;;;;;;2.56;86.10;100376.67;86989;1299;77134;-63
2021/11/25 06:32:49;;;;;;;32.50;21.30;;;;;;;2.56;86.11;100374.42;87020;1299;83608;-62
2021/11/25 06:34:58;;;;;;;31.90;21.80;;;;;;;2.53;86.08;100370.95;87028;1297;98193;-62
2021/11/25 06:37:09;;;;;;;33.60;23.50;;;;;;;2.50;86.07;100366.09;87037;1289;86874;-63
2021/11/25 06:39:18;;;;;;;36.80;24.30;;;;;;;2.45;86.04;100364.73;86991;1303;95417;-64
2021/11/25 06:41:30;;;;;;;35.80;22.10;;;;;;;2.44;85.87;100359.92;87036;1299;80832;-64
2021/11/25 06:43:40;;;;;;;33.10;21.60;;;;;;;2.43;85.83;100360.36;87085;1293;82496;-64
2021/11/25 06:45:50;;;;;;;30.90;20.20;;;;;;;2.41;86.08;100357.85;87056;1299;98143;-64
2021/11/25 06:48:04;;;;;;;31.50;20.30;;;;;;;2.39;85.96;100356.92;87098;1298;86931;-64
2021/11/25 06:50:15;;;;;;;28.80;19.80;;;;;;;2.44;85.78;100351.54;87077;1299;94804;-64
2021/11/25 06:52:24;;;;;;;30.30;20.60;;;;;;;2.45;86.01;100349.80;87082;1298;81560;-62
2021/11/25 06:54:34;;;;;;;32.70;21.10;;;;;;;2.45;85.94;100349.33;87020;1296;81597;-63
2021/11/25 06:56:44;;;;;;;31.90;21.50;;;;;;;2.46;86.00;100346.75;87043;1298;100233;-64
2021/11/25 06:58:55;;;;;;;34.00;21.80;;;;;;;2.47;86.00;100345.88;87005;1295;86978;-64
2021/11/25 07:01:07;;;;;;;32.80;23.40;;;;;;;2.58;86.07;100341.20;87012;1299;95506;-62
2021/11/25 07:03:17;;;;;;;32.00;22.40;;;;;;;2.74;86.06;100335.02;87015;1299;80218;-62
2021/11/25 07:05:28;;;;;;;34.00;24.40;;;;;;;2.92;85.91;100330.86;87023;1298;82958;-63
2021/11/25 07:07:38;;;;;;;32.60;23.20;;;;;;;3.27;86.41;100324.02;87008;1299;99536;-63
2021/11/25 07:09:47;;;;;;;35.00;23.30;;;;;;;3.76;86.26;100322.43;87028;1299;89552;-62
2021/11/25 07:11:56;;;;;;;33.60;22.90;;;;;;;4.51;86.18;100322.32;86993;1299;94476;-63
2021/11/25 07:14:08;;;;;;;32.50;23.10;;;;;;;5.39;85.63;100315.47;86960;1299;79645;-63
2021/11/25 07:16:17;;;;;;;31.60;22.50;;;;;;;6.23;85.11;100315.30;87028;1299;82475;-63
2021/11/25 07:18:29;;;;;;;32.70;22.90;;;;;;;7.00;84.42;100313.95;87048;1299;98992;-61
2021/11/25 07:20:39;;;;;;;30.30;22.00;;;;;;;7.75;83.36;100311.23;87113;1299;89126;-64
2021/11/25 07:22:52;;;;;;;26.00;20.80;;;;;;;8.34;83.13;100310.95;87069;1285;95017;-64
2021/11/25 07:25:01;;;;;;;24.80;19.40;;;;;;;8.97;82.23;100302.98;87080;1299;78739;-65
2021/11/25 07:27:11;;;;;;;23.80;19.00;;;;;;;9.52;80.56;100299.64;87091;1299;82793;-63
2021/11/25 07:29:26;;;;;;;27.80;21.50;;;;;;;9.78;80.15;100297.46;87087;1299;97533;-64
2021/11/25 07:31:37;;;;;;;26.40;20.90;;;;;;;10.24;79.12;100295.88;87106;1299;86674;-64
2021/11/25 07:33:47;;;;;;;25.40;19.90;;;;;;;10.37;77.72;100291.23;87085;1299;93666;-65
2021/11/25 07:35:56;;;;;;;25.80;20.20;;;;;;;10.20;76.90;100287.38;87110;1299;78169;-63
2021/11/25 07:38:06;;;;;;;26.70;20.40;;;;;;;10.40;76.35;100276.63;87105;1298;82750;-63
2021/11/25 07:40:16;;;;;;;26.70;20.60;;;;;;;10.79;75.59;100276.60;87089;1299;99728;-63
2021/11/25 07:42:25;;;;;;;25.60;21.20;;;;;;;10.74;74.97;100266.14;87122;1302;89384;-64
2021/11/25 07:44:38;;;;;;;23.90;20.50;;;;;;;10.81;74.28;100263.64;87016;1299;93556;-65
2021/11/25 07:46:49;;;;;;;25.70;22.10;;;;;;;10.96;73.88;100260.91;87034;1299;79097;-64
2021/11/25 07:49:01;;;;;;;25.20;20.40;;;;;;;11.39;72.91;100255.90;87032;1299;80545;-65
2021/11/25 07:51:15;;;;;;;26.90;20.70;;;;;;;11.71;71.72;100249.53;86878;1293;313579;-64
2021/11/25 07:53:25;;;;;;;25.80;20.50;;;;;;;11.88;70.93;100250.05;87004;1301;86863;-63
2021/11/25 07:55:38;;;;;;;22.90;19.90;;;;;;;12.02;70.22;100244.60;87068;1299;95876;-64
2021/11/25 07:57:49;;;;;;;25.30;19.70;;;;;;;11.67;69.44;100238.94;87089;1298;80882;-65
2021/11/25 08:00:02;;;;;;;21.90;18.40;;;;;;;11.70;68.07;100234.84;87080;1299;80448;-64
2021/11/25 08:02:11;;;;;;;24.00;19.00;;;;;;;10.67;67.81;100227.00;87087;1299;100069;-63
2021/11/25 08:04:24;;;;;;;139.70;103.50;;;;;;;9.86;68.41;100224.99;87009;1298;88848;-63
2021/11/25 08:06:37;;;;;;;37.70;29.40;;;;;;;9.09;68.91;100221.95;87065;1295;93478;-63
2021/11/25 08:08:50;;;;;;;23.90;19.40;;;;;;;8.38;69.40;100228.45;87087;1299;77983;-63
2021/11/25 08:11:02;;;;;;;28.10;19.80;;;;;;;7.80;69.35;100229.00;87114;1299;80578;-64
2021/11/25 08:13:12;;;;;;;25.80;18.40;;;;;;;7.35;70.25;100222.73;87095;1298;100024;-64
2021/11/25 08:15:23;;;;;;;24.70;19.00;;;;;;;7.00;70.80;100220.72;87114;1299;88741;-64
2021/11/25 08:17:36;;;;;;;25.30;19.30;;;;;;;6.71;71.32;100222.52;87091;1299;94536;-65
2021/11/25 08:19:46;;;;;;;26.30;19.70;;;;;;;6.60;71.62;100224.73;87000;1298;79596;-66
2021/11/25 08:21:56;;;;;;;25.40;19.20;;;;;;;6.70;72.00;100223.54;86990;1296;81317;-65
2021/11/25 08:24:06;;;;;;;25.80;19.60;;;;;;;7.30;71.62;100216.06;86985;1297;98822;-65
2021/11/25 08:26:16;;;;;;;26.10;20.00;;;;;;;8.14;70.90;100212.77;87003;1299;88014;-65
2021/11/25 08:28:29;;;;;;;26.20;19.20;;;;;;;8.99;70.87;100202.25;86867;1302;95117;-65
2021/11/25 08:30:40;;;;;;;21.40;18.30;;;;;;;9.62;68.23;100196.88;86925;1301;80520;-65
2021/11/25 08:32:55;;;;;;;21.70;18.00;;;;;;;10.02;68.88;100196.88;86988;1298;83661;-66
2021/11/25 08:35:11;;;;;;;25.30;19.10;;;;;;;10.15;68.85;100193.50;87093;1302;97543;-65
2021/11/25 08:37:22;;;;;;;21.10;17.80;;;;;;;9.69;68.63;100191.28;87078;1294;87826;-64
2021/11/25 08:39:40;;;;;;;23.60;18.30;;;;;;;9.10;68.57;100190.84;86977;1303;93867;-65
2021/11/25 08:41:50;;;;;;;21.90;18.00;;;;;;;8.73;68.64;100191.36;86952;1306;80913;-64
2021/11/25 08:44:00;;;;;;;22.50;18.20;;;;;;;8.47;68.51;100192.48;87010;1302;83146;-65
2021/11/25 08:46:15;;;;;;;22.60;19.10;;;;;;;8.91;68.60;100184.41;87005;1298;98299;-65
2021/11/25 08:48:25;;;;;;;25.50;18.30;;;;;;;9.64;69.24;100184.95;87017;1297;87451;-63
2021/11/25 08:50:41;;;;;;;25.40;19.20;;;;;;;10.15;68.55;100171.19;86986;1299;95657;-64
2021/11/25 08:52:55;;;;;;;21.50;18.50;;;;;;;10.59;67.93;100168.00;87006;1299;80696;-65
2021/11/25 08:55:09;;;;;;;25.30;20.10;;;;;;;11.09;67.55;100167.02;87048;1294;81690;-65
2021/11/25 08:57:21;;;;;;;24.50;19.40;;;;;;;11.48;67.14;100164.98;86987;1287;96509;-66
2021/11/25 08:59:30;;;;;;;23.40;19.10;;;;;;;11.71;66.31;100159.11;87004;1294;87320;-65
2021/11/25 09:01:41;;;;;;;24.40;19.60;;;;;;;12.09;65.07;100154.08;87011;1299;95570;-66
2021/11/25 09:03:52;;;;;;;23.10;18.70;;;;;;;12.17;64.79;100144.70;86998;1298;81311;-65
2021/11/25 09:06:05;;;;;;;25.90;20.60;;;;;;;12.18;63.70;100145.60;87029;1296;81068;-64
2021/11/25 09:08:15;;;;;;;21.90;19.40;;;;;;;12.14;62.19;100143.71;86998;1298;99423;-66
2021/11/25 09:10:25;;;;;;;22.70;18.60;;;;;;;11.93;63.02;100141.58;87011;1299;89300;-66
2021/11/25 09:12:35;;;;;;;22.30;19.10;;;;;;;12.20;63.00;100136.64;87026;1299;92440;-66
2021/11/25 09:14:48;;;;;;;21.50;19.20;;;;;;;12.48;62.06;100132.13;86988;1299;78053;-66
2021/11/25 09:16:58;;;;;;;22.80;19.30;;;;;;;12.70;62.07;100126.11;87145;1299;80997;-67
2021/11/25 09:19:12;;;;;;;25.20;19.30;;;;;;;12.54;61.86;100122.73;87039;1299;100333;-65
2021/11/25 09:21:22;;;;;;;;;;;;;;;12.81;61.93;100121.71;87105;1298;88464;-65
2021/11/25 09:23:32;;;;;;;20.20;18.00;;;;;;;13.02;61.43;100119.52;87056;1299;95546;-66
2021/11/25 09:25:43;;;;;;;22.60;18.20;;;;;;;13.39;59.97;100115.06;87113;1294;79388;-64
2021/11/25 09:27:53;;;;;;;22.60;18.40;;;;;;;13.38;59.86;100113.33;87091;1298;82205;-63
2021/11/25 09:30:03;;;;;;;21.50;18.30;;;;;;;13.50;60.22;100107.05;87085;1298;97758;-64
2021/11/25 09:32:16;;;;;;;21.00;18.60;;;;;;;13.33;57.83;100101.62;87069;1295;86347;-66
2021/11/25 09:34:26;;;;;;;19.90;17.70;;;;;;;13.13;58.74;100097.33;87087;1298;95355;-65
2021/11/25 09:36:37;;;;;;;20.70;18.30;;;;;;;13.15;59.57;100091.36;87092;1294;79272;-65
2021/11/25 09:38:47;;;;;;;20.50;17.80;;;;;;;13.23;59.38;100086.48;87092;1299;82092;-65
2021/11/25 09:40:56;;;;;;;21.40;18.50;;;;;;;13.19;59.89;100084.70;87092;1301;99750;-64
2021/11/25 09:43:10;;;;;;;21.10;18.60;;;;;;;13.55;56.93;100082.84;87097;1299;88164;-64
2021/11/25 09:45:23;;;;;;;22.90;18.40;;;;;;;13.15;57.27;100070.36;87091;1299;94298;-63
2021/11/25 09:47:33;;;;;;;22.20;19.30;;;;;;;13.29;57.34;100072.23;87091;1297;79722;-64
2021/11/25 09:49:44;;;;;;;22.10;18.60;;;;;;;13.39;57.96;100060.34;87110;1294;82238;-64
2021/11/25 09:51:55;;;;;;;20.60;18.50;;;;;;;13.57;56.89;100055.90;87057;1299;99732;-64
2021/11/25 09:54:08;;;;;;;22.60;18.70;;;;;;;13.58;57.87;100052.43;87108;1299;89320;-65
2021/11/25 09:56:17;;;;;;;20.50;18.30;;;;;;;13.34;56.86;100048.58;87109;1299;93814;-64
2021/11/25 09:58:30;;;;;;;22.20;19.40;;;;;;;13.25;57.19;100037.57;87087;1292;79222;-64
2021/11/25 10:00:42;;;;;;;24.40;18.50;;;;;;;13.55;57.39;100030.12;87099;1297;82134;-65
2021/11/25 10:02:51;;;;;;;22.30;18.20;;;;;;;13.66;57.32;100022.45;87108;1299;98562;-67
2021/11/25 10:05:01;;;;;;;22.30;18.20;;;;;;;13.58;57.46;100015.18;87097;1294;87722;-68